sensor_id;sensor_type;location;lat;lon;timestamp;P1;durP1;ratioP1;P2;durP2;ratioP2
22421;SDS011;11378;51.642;7.668;2023-03-14T00:02:10;1.10;;;1.00;;
22421;SDS011;11378;51.642;7.668;2023-03-14T00:04:38;2.13;;;0.90;;
22421;SDS011;11378;51.642;7.668;2023-03-14T00:07:04;1.73;;;1.05;;
22421;SDS011;11378;51.642;7.668;2023-03-14T00:09:30;0.90;;;0.90;;
22421;SDS011;11378;51.642;7.668;2023-03-14T00:11:57;1.08;;;0.98;;
22421;SDS011;11378;51.642;7.668;2023-03-14T00:14:23;2.05;;;0.88;;
22421;SDS011;11378;51.642;7.668;2023-03-14T00:16:50;0.77;;;0.77;;
22421;SDS011;11378;51.642;7.668;2023-03-14T00:19:16;0.70;;;0.70;;
22421;SDS011;11378;51.642;7.668;2023-03-14T00:21:42;0.90;;;0.90;;
22421;SDS011;11378;51.642;7.668;2023-03-14T00:24:09;0.85;;;0.85;;
22421;SDS011;11378;51.642;7.668;2023-03-14T00:26:35;1.67;;;1.00;;
22421;SDS011;11378;51.642;7.668;2023-03-14T00:29:01;0.68;;;0.68;;
22421;SDS011;11378;51.642;7.668;2023-03-14T00:31:28;1.42;;;0.73;;
22421;SDS011;11378;51.642;7.668;2023-03-14T00:33:54;0.95;;;0.90;;
22421;SDS011;11378;51.642;7.668;2023-03-14T00:36:21;0.75;;;0.70;;
22421;SDS011;11378;51.642;7.668;2023-03-14T00:38:48;1.52;;;0.80;;
22421;SDS011;11378;51.642;7.668;2023-03-14T00:41:19;0.70;;;0.70;;
22421;SDS011;11378;51.642;7.668;2023-03-14T00:43:47;1.02;;;0.80;;
22421;SDS011;11378;51.642;7.668;2023-03-14T00:46:14;0.98;;;0.77;;
22421;SDS011;11378;51.642;7.668;2023-03-14T00:48:43;1.77;;;1.00;;
22421;SDS011;11378;51.642;7.668;2023-03-14T00:51:10;1.17;;;0.90;;
22421;SDS011;11378;51.642;7.668;2023-03-14T00:53:41;1.38;;;0.73;;
22421;SDS011;11378;51.642;7.668;2023-03-14T00:56:09;1.35;;;0.90;;
22421;SDS011;11378;51.642;7.668;2023-03-14T00:58:36;2.30;;;1.00;;
22421;SDS011;11378;51.642;7.668;2023-03-14T01:01:09;1.02;;;0.80;;
22421;SDS011;11378;51.642;7.668;2023-03-14T01:03:36;1.95;;;0.80;;
22421;SDS011;11378;51.642;7.668;2023-03-14T01:06:06;0.70;;;0.70;;
22421;SDS011;11378;51.642;7.668;2023-03-14T01:08:34;1.33;;;0.85;;
22421;SDS011;11378;51.642;7.668;2023-03-14T01:11:04;1.15;;;0.70;;
22421;SDS011;11378;51.642;7.668;2023-03-14T01:13:30;1.70;;;0.82;;
22421;SDS011;11378;51.642;7.668;2023-03-14T01:16:00;0.77;;;0.68;;
22421;SDS011;11378;51.642;7.668;2023-03-14T01:18:26;0.98;;;0.80;;
22421;SDS011;11378;51.642;7.668;2023-03-14T01:20:53;0.80;;;0.80;;
22421;SDS011;11378;51.642;7.668;2023-03-14T01:23:19;0.90;;;0.77;;
22421;SDS011;11378;51.642;7.668;2023-03-14T01:25:46;0.98;;;0.60;;
22421;SDS011;11378;51.642;7.668;2023-03-14T01:28:12;0.80;;;0.70;;
22421;SDS011;11378;51.642;7.668;2023-03-14T01:30:39;0.77;;;0.77;;
22421;SDS011;11378;51.642;7.668;2023-03-14T01:33:05;0.70;;;0.70;;
22421;SDS011;11378;51.642;7.668;2023-03-14T01:35:32;1.38;;;1.02;;
22421;SDS011;11378;51.642;7.668;2023-03-14T01:37:58;0.70;;;0.70;;
22421;SDS011;11378;51.642;7.668;2023-03-14T01:40:25;0.82;;;0.70;;
22421;SDS011;11378;51.642;7.668;2023-03-14T01:43:00;1.05;;;0.80;;
22421;SDS011;11378;51.642;7.668;2023-03-14T01:48:16;0.70;;;0.70;;
22421;SDS011;11378;51.642;7.668;2023-03-14T01:50:42;0.68;;;0.68;;
22421;SDS011;11378;51.642;7.668;2023-03-14T01:53:09;0.70;;;0.70;;
22421;SDS011;11378;51.642;7.668;2023-03-14T01:55:36;0.73;;;0.73;;
22421;SDS011;11378;51.642;7.668;2023-03-14T01:58:03;1.13;;;0.80;;
22421;SDS011;11378;51.642;7.668;2023-03-14T02:00:30;0.82;;;0.80;;
22421;SDS011;11378;51.642;7.668;2023-03-14T02:03:02;1.05;;;0.70;;
22421;SDS011;11378;51.642;7.668;2023-03-14T02:05:33;1.25;;;0.60;;
22421;SDS011;11378;51.642;7.668;2023-03-14T02:08:05;1.80;;;0.80;;
22421;SDS011;11378;51.642;7.668;2023-03-14T02:10:41;1.00;;;0.70;;
22421;SDS011;11378;51.642;7.668;2023-03-14T02:15:43;1.02;;;0.73;;
22421;SDS011;11378;51.642;7.668;2023-03-14T02:18:33;2.08;;;0.80;;
22421;SDS011;11378;51.642;7.668;2023-03-14T02:21:20;0.82;;;0.65;;
22421;SDS011;11378;51.642;7.668;2023-03-14T02:27:00;0.70;;;0.70;;
22421;SDS011;11378;51.642;7.668;2023-03-14T02:29:10;0.60;;;0.60;;
22421;SDS011;11378;51.642;7.668;2023-03-14T02:31:36;1.00;;;0.70;;
22421;SDS011;11378;51.642;7.668;2023-03-14T02:34:03;1.45;;;0.77;;
22421;SDS011;11378;51.642;7.668;2023-03-14T02:36:29;0.60;;;0.60;;
22421;SDS011;11378;51.642;7.668;2023-03-14T02:39:11;1.05;;;0.60;;
22421;SDS011;11378;51.642;7.668;2023-03-14T02:41:41;0.80;;;0.80;;
22421;SDS011;11378;51.642;7.668;2023-03-14T02:44:10;0.85;;;0.80;;
22421;SDS011;11378;51.642;7.668;2023-03-14T02:46:37;1.27;;;0.70;;
22421;SDS011;11378;51.642;7.668;2023-03-14T02:49:04;1.65;;;0.80;;
22421;SDS011;11378;51.642;7.668;2023-03-14T02:51:33;0.70;;;0.70;;
22421;SDS011;11378;51.642;7.668;2023-03-14T02:54:00;0.77;;;0.77;;
22421;SDS011;11378;51.642;7.668;2023-03-14T02:56:27;1.00;;;0.90;;
22421;SDS011;11378;51.642;7.668;2023-03-14T02:58:53;0.88;;;0.75;;
22421;SDS011;11378;51.642;7.668;2023-03-14T03:01:36;0.70;;;0.68;;
22421;SDS011;11378;51.642;7.668;2023-03-14T03:04:03;1.08;;;0.60;;
22421;SDS011;11378;51.642;7.668;2023-03-14T03:06:29;0.75;;;0.68;;
22421;SDS011;11378;51.642;7.668;2023-03-14T03:08:56;0.90;;;0.75;;
22421;SDS011;11378;51.642;7.668;2023-03-14T03:11:22;0.82;;;0.60;;
22421;SDS011;11378;51.642;7.668;2023-03-14T03:13:49;0.88;;;0.70;;
22421;SDS011;11378;51.642;7.668;2023-03-14T03:16:15;0.65;;;0.60;;
22421;SDS011;11378;51.642;7.668;2023-03-14T03:18:42;0.85;;;0.52;;
22421;SDS011;11378;51.642;7.668;2023-03-14T03:21:08;1.42;;;0.80;;
22421;SDS011;11378;51.642;7.668;2023-03-14T03:23:35;1.38;;;0.75;;
22421;SDS011;11378;51.642;7.668;2023-03-14T03:26:03;0.70;;;0.70;;
22421;SDS011;11378;51.642;7.668;2023-03-14T03:28:29;0.80;;;0.60;;
22421;SDS011;11378;51.642;7.668;2023-03-14T03:30:57;1.15;;;0.85;;
22421;SDS011;11378;51.642;7.668;2023-03-14T03:33:23;0.50;;;0.50;;
22421;SDS011;11378;51.642;7.668;2023-03-14T03:35:50;1.67;;;0.90;;
22421;SDS011;11378;51.642;7.668;2023-03-14T03:38:23;1.10;;;0.73;;
22421;SDS011;11378;51.642;7.668;2023-03-14T03:40:52;0.80;;;0.70;;
22421;SDS011;11378;51.642;7.668;2023-03-14T03:43:18;1.48;;;0.70;;
22421;SDS011;11378;51.642;7.668;2023-03-14T03:45:47;0.65;;;0.60;;
22421;SDS011;11378;51.642;7.668;2023-03-14T03:48:13;0.75;;;0.50;;
22421;SDS011;11378;51.642;7.668;2023-03-14T03:50:46;0.60;;;0.60;;
22421;SDS011;11378;51.642;7.668;2023-03-14T03:53:15;0.60;;;0.60;;
22421;SDS011;11378;51.642;7.668;2023-03-14T03:55:42;1.05;;;0.70;;
22421;SDS011;11378;51.642;7.668;2023-03-14T03:58:09;0.93;;;0.77;;
22421;SDS011;11378;51.642;7.668;2023-03-14T04:00:35;1.02;;;0.75;;
22421;SDS011;11378;51.642;7.668;2023-03-14T04:03:02;0.88;;;0.60;;
22421;SDS011;11378;51.642;7.668;2023-03-14T04:05:28;1.10;;;0.63;;
22421;SDS011;11378;51.642;7.668;2023-03-14T04:08:02;1.33;;;0.75;;
22421;SDS011;11378;51.642;7.668;2023-03-14T04:10:29;1.23;;;0.80;;
22421;SDS011;11378;51.642;7.668;2023-03-14T04:13:08;2.17;;;0.70;;
22421;SDS011;11378;51.642;7.668;2023-03-14T04:15:36;0.68;;;0.65;;
22421;SDS011;11378;51.642;7.668;2023-03-14T04:18:32;0.77;;;0.73;;
22421;SDS011;11378;51.642;7.668;2023-03-14T04:20:59;1.27;;;0.93;;
22421;SDS011;11378;51.642;7.668;2023-03-14T04:23:34;1.45;;;0.90;;
22421;SDS011;11378;51.642;7.668;2023-03-14T04:26:02;1.55;;;0.95;;
22421;SDS011;11378;51.642;7.668;2023-03-14T04:28:31;1.00;;;0.90;;
22421;SDS011;11378;51.642;7.668;2023-03-14T04:30:58;1.27;;;0.80;;
22421;SDS011;11378;51.642;7.668;2023-03-14T04:33:25;1.58;;;0.80;;
22421;SDS011;11378;51.642;7.668;2023-03-14T04:35:54;0.77;;;0.70;;
22421;SDS011;11378;51.642;7.668;2023-03-14T04:38:21;0.98;;;0.68;;
22421;SDS011;11378;51.642;7.668;2023-03-14T04:40:48;0.60;;;0.60;;
22421;SDS011;11378;51.642;7.668;2023-03-14T04:43:16;1.65;;;0.80;;
22421;SDS011;11378;51.642;7.668;2023-03-14T04:45:51;0.95;;;0.80;;
22421;SDS011;11378;51.642;7.668;2023-03-14T04:48:18;0.65;;;0.60;;
22421;SDS011;11378;51.642;7.668;2023-03-14T04:50:45;1.25;;;0.80;;
22421;SDS011;11378;51.642;7.668;2023-03-14T04:53:12;0.73;;;0.70;;
22421;SDS011;11378;51.642;7.668;2023-03-14T04:55:41;0.95;;;0.80;;
22421;SDS011;11378;51.642;7.668;2023-03-14T04:58:07;0.90;;;0.70;;
22421;SDS011;11378;51.642;7.668;2023-03-14T05:00:34;1.25;;;0.93;;
22421;SDS011;11378;51.642;7.668;2023-03-14T05:03:26;0.82;;;0.73;;
22421;SDS011;11378;51.642;7.668;2023-03-14T05:06:13;1.27;;;0.68;;
22421;SDS011;11378;51.642;7.668;2023-03-14T05:09:05;0.88;;;0.85;;
22421;SDS011;11378;51.642;7.668;2023-03-14T05:11:52;0.60;;;0.60;;
22421;SDS011;11378;51.642;7.668;2023-03-14T05:14:36;1.40;;;0.90;;
22421;SDS011;11378;51.642;7.668;2023-03-14T05:17:32;0.80;;;0.80;;
22421;SDS011;11378;51.642;7.668;2023-03-14T05:20:18;1.00;;;0.90;;
22421;SDS011;11378;51.642;7.668;2023-03-14T05:23:08;0.88;;;0.88;;
22421;SDS011;11378;51.642;7.668;2023-03-14T05:25:55;1.27;;;0.70;;
22421;SDS011;11378;51.642;7.668;2023-03-14T05:28:36;0.85;;;0.70;;
22421;SDS011;11378;51.642;7.668;2023-03-14T05:31:20;2.05;;;0.80;;
22421;SDS011;11378;51.642;7.668;2023-03-14T05:34:01;0.82;;;0.70;;
22421;SDS011;11378;51.642;7.668;2023-03-14T05:36:46;1.98;;;0.80;;
22421;SDS011;11378;51.642;7.668;2023-03-14T05:39:24;1.20;;;0.90;;
22421;SDS011;11378;51.642;7.668;2023-03-14T05:42:08;0.70;;;0.70;;
22421;SDS011;11378;51.642;7.668;2023-03-14T05:45:01;0.77;;;0.65;;
22421;SDS011;11378;51.642;7.668;2023-03-14T05:47:46;1.38;;;0.80;;
22421;SDS011;11378;51.642;7.668;2023-03-14T05:50:38;0.60;;;0.60;;
22421;SDS011;11378;51.642;7.668;2023-03-14T05:53:22;0.80;;;0.80;;
22421;SDS011;11378;51.642;7.668;2023-03-14T05:55:54;0.93;;;0.80;;
22421;SDS011;11378;51.642;7.668;2023-03-14T05:58:39;1.33;;;0.95;;
22421;SDS011;11378;51.642;7.668;2023-03-14T06:01:25;2.25;;;0.80;;
22421;SDS011;11378;51.642;7.668;2023-03-14T06:04:04;0.90;;;0.80;;
22421;SDS011;11378;51.642;7.668;2023-03-14T06:06:31;0.63;;;0.50;;
22421;SDS011;11378;51.642;7.668;2023-03-14T06:08:59;0.60;;;0.60;;
22421;SDS011;11378;51.642;7.668;2023-03-14T06:11:25;0.90;;;0.57;;
22421;SDS011;11378;51.642;7.668;2023-03-14T06:13:52;0.75;;;0.60;;
22421;SDS011;11378;51.642;7.668;2023-03-14T06:16:18;0.70;;;0.70;;
22421;SDS011;11378;51.642;7.668;2023-03-14T06:18:44;0.80;;;0.70;;
22421;SDS011;11378;51.642;7.668;2023-03-14T06:21:17;0.80;;;0.70;;
22421;SDS011;11378;51.642;7.668;2023-03-14T06:23:46;0.90;;;0.55;;
22421;SDS011;11378;51.642;7.668;2023-03-14T06:26:12;1.38;;;0.70;;
22421;SDS011;11378;51.642;7.668;2023-03-14T06:28:38;0.73;;;0.70;;
22421;SDS011;11378;51.642;7.668;2023-03-14T06:31:05;0.63;;;0.60;;
22421;SDS011;11378;51.642;7.668;2023-03-14T06:33:39;1.35;;;0.68;;
22421;SDS011;11378;51.642;7.668;2023-03-14T06:36:06;1.92;;;0.70;;
22421;SDS011;11378;51.642;7.668;2023-03-14T06:38:34;1.80;;;0.90;;
22421;SDS011;11378;51.642;7.668;2023-03-14T06:41:04;0.73;;;0.60;;
22421;SDS011;11378;51.642;7.668;2023-03-14T06:43:36;2.92;;;0.77;;
22421;SDS011;11378;51.642;7.668;2023-03-14T06:46:03;0.77;;;0.60;;
22421;SDS011;11378;51.642;7.668;2023-03-14T06:48:31;1.90;;;0.70;;
22421;SDS011;11378;51.642;7.668;2023-03-14T06:50:57;0.88;;;0.60;;
22421;SDS011;11378;51.642;7.668;2023-03-14T06:53:24;0.95;;;0.70;;
22421;SDS011;11378;51.642;7.668;2023-03-14T06:55:51;0.80;;;0.60;;
22421;SDS011;11378;51.642;7.668;2023-03-14T06:58:18;1.13;;;0.60;;
22421;SDS011;11378;51.642;7.668;2023-03-14T07:00:44;1.02;;;0.60;;
22421;SDS011;11378;51.642;7.668;2023-03-14T07:05:44;1.23;;;0.60;;
22421;SDS011;11378;51.642;7.668;2023-03-14T07:08:10;0.68;;;0.68;;
22421;SDS011;11378;51.642;7.668;2023-03-14T07:10:36;0.60;;;0.60;;
22421;SDS011;11378;51.642;7.668;2023-03-14T07:13:05;1.42;;;0.50;;
22421;SDS011;11378;51.642;7.668;2023-03-14T07:15:44;0.60;;;0.60;;
22421;SDS011;11378;51.642;7.668;2023-03-14T07:18:10;1.60;;;0.70;;
22421;SDS011;11378;51.642;7.668;2023-03-14T07:20:37;0.70;;;0.65;;
22421;SDS011;11378;51.642;7.668;2023-03-14T07:23:21;0.73;;;0.57;;
22421;SDS011;11378;51.642;7.668;2023-03-14T07:25:51;0.63;;;0.60;;
22421;SDS011;11378;51.642;7.668;2023-03-14T07:31:49;1.10;;;0.77;;
22421;SDS011;11378;51.642;7.668;2023-03-14T07:34:18;1.10;;;0.60;;
22421;SDS011;11378;51.642;7.668;2023-03-14T07:36:51;1.58;;;0.60;;
22421;SDS011;11378;51.642;7.668;2023-03-14T07:39:51;0.60;;;0.60;;
22421;SDS011;11378;51.642;7.668;2023-03-14T07:42:30;1.63;;;0.60;;
22421;SDS011;11378;51.642;7.668;2023-03-14T07:45:09;0.50;;;0.50;;
22421;SDS011;11378;51.642;7.668;2023-03-14T07:47:35;0.60;;;0.60;;
22421;SDS011;11378;51.642;7.668;2023-03-14T07:50:02;0.60;;;0.60;;
22421;SDS011;11378;51.642;7.668;2023-03-14T07:52:35;0.70;;;0.60;;
22421;SDS011;11378;51.642;7.668;2023-03-14T07:55:23;1.55;;;0.95;;
22421;SDS011;11378;51.642;7.668;2023-03-14T07:58:45;0.60;;;0.60;;
22421;SDS011;11378;51.642;7.668;2023-03-14T08:04:45;0.60;;;0.47;;
22421;SDS011;11378;51.642;7.668;2023-03-14T08:07:17;0.47;;;0.47;;
22421;SDS011;11378;51.642;7.668;2023-03-14T08:09:44;0.40;;;0.40;;
22421;SDS011;11378;51.642;7.668;2023-03-14T08:12:10;0.75;;;0.65;;
22421;SDS011;11378;51.642;7.668;2023-03-14T08:14:36;0.70;;;0.57;;
22421;SDS011;11378;51.642;7.668;2023-03-14T08:17:02;0.40;;;0.40;;
22421;SDS011;11378;51.642;7.668;2023-03-14T08:19:35;0.50;;;0.50;;
22421;SDS011;11378;51.642;7.668;2023-03-14T08:22:05;0.80;;;0.50;;
22421;SDS011;11378;51.642;7.668;2023-03-14T08:24:31;0.60;;;0.60;;
22421;SDS011;11378;51.642;7.668;2023-03-14T08:26:57;0.50;;;0.50;;
22421;SDS011;11378;51.642;7.668;2023-03-14T08:29:39;0.60;;;0.50;;
22421;SDS011;11378;51.642;7.668;2023-03-14T08:32:06;0.60;;;0.60;;
22421;SDS011;11378;51.642;7.668;2023-03-14T08:38:08;0.50;;;0.50;;
22421;SDS011;11378;51.642;7.668;2023-03-14T08:40:34;1.38;;;0.60;;
22421;SDS011;11378;51.642;7.668;2023-03-14T08:43:01;1.08;;;0.60;;
22421;SDS011;11378;51.642;7.668;2023-03-14T08:48:56;0.65;;;0.60;;
22421;SDS011;11378;51.642;7.668;2023-03-14T08:51:22;0.73;;;0.50;;
22421;SDS011;11378;51.642;7.668;2023-03-14T08:53:48;2.95;;;0.70;;
22421;SDS011;11378;51.642;7.668;2023-03-14T08:56:15;0.50;;;0.50;;
22421;SDS011;11378;51.642;7.668;2023-03-14T08:58:41;0.52;;;0.52;;
22421;SDS011;11378;51.642;7.668;2023-03-14T09:01:09;1.10;;;0.63;;
22421;SDS011;11378;51.642;7.668;2023-03-14T09:03:36;1.65;;;0.80;;
22421;SDS011;11378;51.642;7.668;2023-03-14T09:06:04;0.98;;;0.60;;
22421;SDS011;11378;51.642;7.668;2023-03-14T09:08:30;2.55;;;1.50;;
22421;SDS011;11378;51.642;7.668;2023-03-14T09:10:57;2.45;;;0.60;;
22421;SDS011;11378;51.642;7.668;2023-03-14T09:13:23;0.70;;;0.70;;
22421;SDS011;11378;51.642;7.668;2023-03-14T09:18:37;0.57;;;0.57;;
22421;SDS011;11378;51.642;7.668;2023-03-14T09:21:04;0.60;;;0.50;;
22421;SDS011;11378;51.642;7.668;2023-03-14T09:23:30;1.13;;;0.70;;
22421;SDS011;11378;51.642;7.668;2023-03-14T09:28:56;0.50;;;0.50;;
22421;SDS011;11378;51.642;7.668;2023-03-14T09:31:23;0.85;;;0.70;;
22421;SDS011;11378;51.642;7.668;2023-03-14T09:33:50;0.60;;;0.60;;
22421;SDS011;11378;51.642;7.668;2023-03-14T09:36:34;0.63;;;0.63;;
22421;SDS011;11378;51.642;7.668;2023-03-14T09:39:03;0.52;;;0.52;;
22421;SDS011;11378;51.642;7.668;2023-03-14T09:41:30;0.50;;;0.50;;
22421;SDS011;11378;51.642;7.668;2023-03-14T09:44:05;0.70;;;0.68;;
22421;SDS011;11378;51.642;7.668;2023-03-14T09:46:33;0.50;;;0.50;;
22421;SDS011;11378;51.642;7.668;2023-03-14T09:49:01;0.60;;;0.60;;
22421;SDS011;11378;51.642;7.668;2023-03-14T09:51:27;4.72;;;0.63;;
22421;SDS011;11378;51.642;7.668;2023-03-14T09:53:53;0.60;;;0.60;;
22421;SDS011;11378;51.642;7.668;2023-03-14T09:56:21;1.00;;;0.70;;
22421;SDS011;11378;51.642;7.668;2023-03-14T09:59:00;0.60;;;0.60;;
22421;SDS011;11378;51.642;7.668;2023-03-14T10:01:27;0.60;;;0.60;;
22421;SDS011;11378;51.642;7.668;2023-03-14T10:03:55;0.70;;;0.60;;
22421;SDS011;11378;51.642;7.668;2023-03-14T10:06:23;0.60;;;0.60;;
22421;SDS011;11378;51.642;7.668;2023-03-14T10:11:54;1.05;;;0.63;;
22421;SDS011;11378;51.642;7.668;2023-03-14T10:17:13;0.50;;;0.50;;
22421;SDS011;11378;51.642;7.668;2023-03-14T10:19:54;0.63;;;0.60;;
22421;SDS011;11378;51.642;7.668;2023-03-14T10:22:21;0.60;;;0.60;;
22421;SDS011;11378;51.642;7.668;2023-03-14T10:24:52;0.60;;;0.50;;
22421;SDS011;11378;51.642;7.668;2023-03-14T10:27:50;0.60;;;0.52;;
22421;SDS011;11378;51.642;7.668;2023-03-14T10:33:25;0.70;;;0.70;;
22421;SDS011;11378;51.642;7.668;2023-03-14T10:38:26;0.70;;;0.70;;
22421;SDS011;11378;51.642;7.668;2023-03-14T10:40:53;0.50;;;0.50;;
22421;SDS011;11378;51.642;7.668;2023-03-14T10:46:56;0.60;;;0.60;;
22421;SDS011;11378;51.642;7.668;2023-03-14T10:49:27;0.60;;;0.60;;
22421;SDS011;11378;51.642;7.668;2023-03-14T10:51:53;0.63;;;0.50;;
22421;SDS011;11378;51.642;7.668;2023-03-14T10:54:20;0.40;;;0.40;;
22421;SDS011;11378;51.642;7.668;2023-03-14T10:56:55;0.77;;;0.77;;
22421;SDS011;11378;51.642;7.668;2023-03-14T10:59:22;0.70;;;0.70;;
22421;SDS011;11378;51.642;7.668;2023-03-14T11:01:59;0.68;;;0.68;;
22421;SDS011;11378;51.642;7.668;2023-03-14T11:12:37;0.65;;;0.63;;
22421;SDS011;11378;51.642;7.668;2023-03-14T11:15:05;0.68;;;0.68;;
22421;SDS011;11378;51.642;7.668;2023-03-14T11:17:39;0.50;;;0.50;;
22421;SDS011;11378;51.642;7.668;2023-03-14T11:20:17;0.70;;;0.70;;
22421;SDS011;11378;51.642;7.668;2023-03-14T11:23:04;0.57;;;0.57;;
22421;SDS011;11378;51.642;7.668;2023-03-14T11:25:46;0.55;;;0.55;;
22421;SDS011;11378;51.642;7.668;2023-03-14T11:34:06;0.68;;;0.68;;
22421;SDS011;11378;51.642;7.668;2023-03-14T11:36:38;0.98;;;0.77;;
22421;SDS011;11378;51.642;7.668;2023-03-14T11:39:17;0.68;;;0.68;;
22421;SDS011;11378;51.642;7.668;2023-03-14T12:04:50;0.60;;;0.60;;
22421;SDS011;11378;51.642;7.668;2023-03-14T12:14:23;0.55;;;0.55;;
22421;SDS011;11378;51.642;7.668;2023-03-14T12:19:36;0.70;;;0.70;;
22421;SDS011;11378;51.642;7.668;2023-03-14T12:24:40;0.60;;;0.60;;
22421;SDS011;11378;51.642;7.668;2023-03-14T12:27:12;0.52;;;0.50;;
22421;SDS011;11378;51.642;7.668;2023-03-14T12:29:58;0.95;;;0.75;;
22421;SDS011;11378;51.642;7.668;2023-03-14T12:32:25;0.65;;;0.65;;
22421;SDS011;11378;51.642;7.668;2023-03-14T12:34:53;0.65;;;0.65;;
22421;SDS011;11378;51.642;7.668;2023-03-14T12:40:35;0.50;;;0.50;;
22421;SDS011;11378;51.642;7.668;2023-03-14T12:43:04;0.57;;;0.57;;
22421;SDS011;11378;51.642;7.668;2023-03-14T12:57:33;0.85;;;0.60;;
22421;SDS011;11378;51.642;7.668;2023-03-14T13:02:46;0.70;;;0.70;;
22421;SDS011;11378;51.642;7.668;2023-03-14T13:10:24;0.90;;;0.60;;
22421;SDS011;11378;51.642;7.668;2023-03-14T13:12:52;0.95;;;0.65;;
22421;SDS011;11378;51.642;7.668;2023-03-14T13:17:47;0.70;;;0.70;;
22421;SDS011;11378;51.642;7.668;2023-03-14T13:20:24;0.52;;;0.50;;
22421;SDS011;11378;51.642;7.668;2023-03-14T13:22:52;2.00;;;0.50;;
22421;SDS011;11378;51.642;7.668;2023-03-14T13:32:21;0.60;;;0.60;;
22421;SDS011;11378;51.642;7.668;2023-03-14T13:34:55;0.63;;;0.55;;
22421;SDS011;11378;51.642;7.668;2023-03-14T13:47:54;0.75;;;0.50;;
22421;SDS011;11378;51.642;7.668;2023-03-14T13:50:33;1.25;;;0.60;;
22421;SDS011;11378;51.642;7.668;2023-03-14T14:03:09;0.82;;;0.60;;
22421;SDS011;11378;51.642;7.668;2023-03-14T14:05:48;0.50;;;0.50;;
22421;SDS011;11378;51.642;7.668;2023-03-14T14:08:15;0.60;;;0.60;;
22421;SDS011;11378;51.642;7.668;2023-03-14T14:10:41;0.90;;;0.60;;
22421;SDS011;11378;51.642;7.668;2023-03-14T14:47:11;0.50;;;0.50;;
22421;SDS011;11378;51.642;7.668;2023-03-14T15:14:20;0.50;;;0.50;;
22421;SDS011;11378;51.642;7.668;2023-03-14T15:21:08;1.15;;;0.60;;
22421;SDS011;11378;51.642;7.668;2023-03-14T15:23:35;1.13;;;0.70;;
22421;SDS011;11378;51.642;7.668;2023-03-14T15:26:14;1.95;;;0.80;;
22421;SDS011;11378;51.642;7.668;2023-03-14T15:28:56;1.25;;;0.70;;
22421;SDS011;11378;51.642;7.668;2023-03-14T15:37:40;0.73;;;0.60;;
22421;SDS011;11378;51.642;7.668;2023-03-14T15:43:54;1.02;;;0.80;;
22421;SDS011;11378;51.642;7.668;2023-03-14T15:46:20;1.67;;;0.57;;
22421;SDS011;11378;51.642;7.668;2023-03-14T15:51:46;0.68;;;0.65;;
22421;SDS011;11378;51.642;7.668;2023-03-14T16:00:14;1.10;;;0.70;;
22421;SDS011;11378;51.642;7.668;2023-03-14T16:02:50;1.13;;;0.70;;
22421;SDS011;11378;51.642;7.668;2023-03-14T16:05:16;1.25;;;0.68;;
22421;SDS011;11378;51.642;7.668;2023-03-14T16:07:44;0.88;;;0.80;;
22421;SDS011;11378;51.642;7.668;2023-03-14T16:10:11;0.85;;;0.60;;
22421;SDS011;11378;51.642;7.668;2023-03-14T16:12:47;1.95;;;0.70;;
22421;SDS011;11378;51.642;7.668;2023-03-14T16:15:13;1.75;;;0.85;;
22421;SDS011;11378;51.642;7.668;2023-03-14T16:17:39;0.70;;;0.70;;
22421;SDS011;11378;51.642;7.668;2023-03-14T16:20:07;1.17;;;0.60;;
22421;SDS011;11378;51.642;7.668;2023-03-14T16:22:34;1.25;;;0.70;;
22421;SDS011;11378;51.642;7.668;2023-03-14T16:25:04;1.05;;;0.80;;
22421;SDS011;11378;51.642;7.668;2023-03-14T16:27:31;1.50;;;0.70;;
22421;SDS011;11378;51.642;7.668;2023-03-14T16:29:58;1.80;;;0.80;;
22421;SDS011;11378;51.642;7.668;2023-03-14T16:32:24;4.07;;;1.33;;
22421;SDS011;11378;51.642;7.668;2023-03-14T16:34:51;1.98;;;1.17;;
22421;SDS011;11378;51.642;7.668;2023-03-14T16:37:17;3.88;;;1.17;;
22421;SDS011;11378;51.642;7.668;2023-03-14T16:39:48;3.85;;;1.10;;
22421;SDS011;11378;51.642;7.668;2023-03-14T16:42:15;3.38;;;1.08;;
22421;SDS011;11378;51.642;7.668;2023-03-14T16:44:42;3.17;;;1.20;;
22421;SDS011;11378;51.642;7.668;2023-03-14T16:47:08;2.80;;;1.17;;
22421;SDS011;11378;51.642;7.668;2023-03-14T16:49:35;3.47;;;1.13;;
22421;SDS011;11378;51.642;7.668;2023-03-14T16:52:01;3.50;;;1.10;;
22421;SDS011;11378;51.642;7.668;2023-03-14T16:54:27;4.00;;;1.10;;
22421;SDS011;11378;51.642;7.668;2023-03-14T16:56:54;4.05;;;1.30;;
22421;SDS011;11378;51.642;7.668;2023-03-14T16:59:20;3.90;;;1.10;;
22421;SDS011;11378;51.642;7.668;2023-03-14T17:01:46;7.53;;;1.38;;
22421;SDS011;11378;51.642;7.668;2023-03-14T17:04:14;5.95;;;1.10;;
22421;SDS011;11378;51.642;7.668;2023-03-14T17:06:40;5.13;;;1.13;;
22421;SDS011;11378;51.642;7.668;2023-03-14T17:09:08;2.28;;;1.10;;
22421;SDS011;11378;51.642;7.668;2023-03-14T17:11:34;2.50;;;0.93;;
22421;SDS011;11378;51.642;7.668;2023-03-14T17:14:01;2.17;;;1.00;;
22421;SDS011;11378;51.642;7.668;2023-03-14T17:16:28;3.75;;;1.05;;
22421;SDS011;11378;51.642;7.668;2023-03-14T17:18:54;1.98;;;1.30;;
22421;SDS011;11378;51.642;7.668;2023-03-14T17:21:21;11.55;;;4.28;;
22421;SDS011;11378;51.642;7.668;2023-03-14T17:23:48;7.15;;;3.63;;
22421;SDS011;11378;51.642;7.668;2023-03-14T17:26:14;6.05;;;3.20;;
22421;SDS011;11378;51.642;7.668;2023-03-14T17:28:42;8.88;;;3.13;;
22421;SDS011;11378;51.642;7.668;2023-03-14T17:33:35;6.68;;;3.08;;
22421;SDS011;11378;51.642;7.668;2023-03-14T17:36:01;5.85;;;3.08;;
22421;SDS011;11378;51.642;7.668;2023-03-14T17:38:28;6.15;;;2.50;;
22421;SDS011;11378;51.642;7.668;2023-03-14T17:40:55;6.90;;;2.65;;
22421;SDS011;11378;51.642;7.668;2023-03-14T17:43:21;5.57;;;2.47;;
22421;SDS011;11378;51.642;7.668;2023-03-14T17:45:55;2.88;;;2.35;;
22421;SDS011;11378;51.642;7.668;2023-03-14T17:48:21;4.63;;;2.30;;
22421;SDS011;11378;51.642;7.668;2023-03-14T17:50:48;5.60;;;2.72;;
22421;SDS011;11378;51.642;7.668;2023-03-14T17:53:14;4.55;;;2.00;;
22421;SDS011;11378;51.642;7.668;2023-03-14T17:55:41;3.47;;;2.03;;
22421;SDS011;11378;51.642;7.668;2023-03-14T17:58:07;4.82;;;2.45;;
22421;SDS011;11378;51.642;7.668;2023-03-14T18:00:34;6.43;;;2.20;;
22421;SDS011;11378;51.642;7.668;2023-03-14T18:03:00;4.53;;;2.20;;
22421;SDS011;11378;51.642;7.668;2023-03-14T18:05:26;3.95;;;2.20;;
22421;SDS011;11378;51.642;7.668;2023-03-14T18:07:53;4.35;;;2.10;;
22421;SDS011;11378;51.642;7.668;2023-03-14T18:10:19;4.18;;;2.33;;
22421;SDS011;11378;51.642;7.668;2023-03-14T18:12:46;3.35;;;1.65;;
22421;SDS011;11378;51.642;7.668;2023-03-14T18:15:12;5.03;;;1.80;;
22421;SDS011;11378;51.642;7.668;2023-03-14T18:17:39;6.43;;;1.90;;
22421;SDS011;11378;51.642;7.668;2023-03-14T18:20:06;2.63;;;1.70;;
22421;SDS011;11378;51.642;7.668;2023-03-14T18:22:39;2.67;;;1.60;;
22421;SDS011;11378;51.642;7.668;2023-03-14T18:25:07;2.63;;;1.50;;
22421;SDS011;11378;51.642;7.668;2023-03-14T18:32:26;3.00;;;1.60;;
22421;SDS011;11378;51.642;7.668;2023-03-14T18:34:53;4.43;;;1.70;;
22421;SDS011;11378;51.642;7.668;2023-03-14T18:37:19;4.50;;;1.45;;
22421;SDS011;11378;51.642;7.668;2023-03-14T18:39:45;2.25;;;1.80;;
22421;SDS011;11378;51.642;7.668;2023-03-14T18:42:12;3.20;;;1.60;;
22421;SDS011;11378;51.642;7.668;2023-03-14T18:44:38;2.65;;;1.52;;
22421;SDS011;11378;51.642;7.668;2023-03-14T18:47:06;4.57;;;1.60;;
22421;SDS011;11378;51.642;7.668;2023-03-14T18:49:33;4.00;;;1.65;;
22421;SDS011;11378;51.642;7.668;2023-03-14T18:51:59;4.70;;;1.40;;
22421;SDS011;11378;51.642;7.668;2023-03-14T18:54:25;3.40;;;1.50;;
22421;SDS011;11378;51.642;7.668;2023-03-14T18:56:51;3.45;;;1.65;;
22421;SDS011;11378;51.642;7.668;2023-03-14T18:59:18;2.25;;;1.58;;
22421;SDS011;11378;51.642;7.668;2023-03-14T19:01:44;2.22;;;1.40;;
22421;SDS011;11378;51.642;7.668;2023-03-14T19:04:11;2.78;;;1.40;;